createdAt,value
2022-08-11T00:01:27.876Z,20.00
2022-08-11T00:04:00.647Z,19.96
2022-08-11T00:06:33.453Z,19.88
2022-08-11T00:09:02.030Z,19.84
2022-08-11T00:11:34.985Z,19.83
2022-08-11T00:14:03.848Z,19.77
2022-08-11T00:16:32.067Z,19.75
2022-08-11T00:19:00.298Z,19.73
2022-08-11T00:22:02.747Z,19.72
2022-08-11T00:24:16.400Z,19.66
2022-08-11T00:26:48.706Z,19.60
2022-08-11T00:29:23.332Z,19.64
2022-08-11T00:31:55.302Z,19.63
2022-08-11T00:34:26.449Z,19.65
2022-08-11T00:37:00.448Z,19.59
2022-08-11T00:39:29.294Z,19.57
2022-08-11T00:42:17.826Z,19.56
2022-08-11T00:45:18.051Z,19.58
2022-08-11T00:48:01.301Z,19.60
2022-08-11T00:50:56.575Z,19.68
2022-08-11T00:53:46.929Z,19.68
2022-08-11T00:56:34.578Z,19.65
2022-08-11T00:59:36.039Z,19.66
2022-08-11T01:02:17.260Z,19.67
2022-08-11T01:05:05.073Z,19.69
2022-08-11T01:08:02.224Z,19.68
2022-08-11T01:10:32.739Z,19.69
2022-08-11T01:13:24.137Z,19.66
2022-08-11T01:16:28.534Z,19.59
2022-08-11T01:19:16.666Z,19.55
2022-08-11T01:22:13.964Z,19.45
2022-08-11T01:25:02.082Z,19.45
2022-08-11T01:27:49.598Z,19.36
2022-08-11T01:30:43.737Z,19.39
2022-08-11T01:33:28.794Z,19.41
2022-08-11T01:36:20.833Z,19.40
2022-08-11T01:39:22.024Z,19.35
2022-08-11T01:42:37.775Z,19.27
2022-08-11T01:45:49.987Z,19.25
2022-08-11T01:48:31.214Z,19.18
2022-08-11T01:51:03.816Z,19.12
2022-08-11T01:53:52.585Z,19.08
2022-08-11T01:56:28.145Z,19.09
2022-08-11T01:59:25.098Z,19.07
2022-08-11T02:02:21.267Z,18.95
2022-08-11T02:05:07.059Z,18.96
2022-08-11T02:07:49.829Z,19.01
2022-08-11T02:10:50.821Z,19.06
2022-08-11T02:13:42.134Z,19.06
2022-08-11T02:16:47.094Z,19.01
2022-08-11T02:19:35.031Z,19.03
2022-08-11T02:22:25.770Z,18.92
2022-08-11T02:25:04.421Z,18.91
2022-08-11T02:28:17.201Z,18.97
2022-08-11T02:32:24.508Z,18.97
2022-08-11T02:34:21.897Z,18.91
2022-08-11T02:37:32.884Z,18.96
2022-08-11T02:39:59.513Z,18.94
2022-08-11T02:42:44.675Z,18.91
2022-08-11T02:45:37.602Z,18.94
2022-08-11T02:48:34.314Z,18.92
2022-08-11T02:51:32.250Z,18.84
2022-08-11T02:54:22.729Z,18.76
2022-08-11T02:56:57.201Z,18.83
2022-08-11T02:59:51.344Z,18.86
2022-08-11T03:02:41.208Z,18.82
2022-08-11T03:05:11.961Z,18.77
2022-08-11T03:07:52.198Z,18.73
2022-08-11T03:11:07.819Z,18.68
2022-08-11T03:14:00.189Z,18.65
2022-08-11T03:16:48.377Z,18.51
2022-08-11T03:19:41.488Z,18.39
2022-08-11T03:22:16.721Z,18.36
2022-08-11T03:24:46.545Z,18.41
2022-08-11T03:27:46.959Z,18.46
2022-08-11T03:30:17.992Z,18.44
2022-08-11T03:33:21.976Z,18.38
2022-08-11T03:36:28.338Z,18.32
2022-08-11T03:39:04.240Z,18.30
2022-08-11T03:42:04.418Z,18.31
2022-08-11T03:44:47.212Z,18.30
2022-08-11T03:47:55.953Z,18.30
2022-08-11T03:50:28.969Z,18.27
2022-08-11T03:53:13.902Z,18.19
2022-08-11T03:56:13.162Z,18.22
2022-08-11T03:59:12.351Z,18.29
2022-08-11T04:02:04.551Z,18.30
2022-08-11T04:04:35.567Z,18.29
2022-08-11T04:07:20.115Z,18.30
2022-08-11T04:09:46.908Z,18.34
2022-08-11T04:12:36.687Z,18.40
2022-08-11T04:15:49.564Z,18.38
2022-08-11T04:19:00.920Z,18.41
2022-08-11T04:21:45.843Z,18.36
2022-08-11T04:24:37.120Z,18.36
2022-08-11T04:27:19.239Z,18.30
2022-08-11T04:30:05.454Z,18.38
2022-08-11T04:32:57.259Z,18.46
2022-08-11T04:35:50.951Z,18.49
2022-08-11T04:38:46.441Z,18.47
2022-08-11T04:42:09.242Z,18.52
2022-08-11T04:45:00.635Z,18.55
2022-08-11T04:48:07.066Z,18.67
2022-08-11T04:51:20.420Z,18.72
2022-08-11T04:54:05.678Z,18.77
2022-08-11T04:56:53.642Z,18.81
2022-08-11T05:00:30.071Z,18.83
2022-08-11T05:03:41.055Z,18.93
2022-08-11T05:06:35.473Z,18.99
2022-08-11T05:09:10.422Z,19.02
2022-08-11T05:11:57.686Z,19.03
2022-08-11T05:14:53.171Z,19.05
2022-08-11T05:18:19.256Z,19.14
2022-08-11T05:21:14.558Z,19.22
2022-08-11T05:24:09.808Z,19.29
2022-08-11T05:27:04.431Z,19.40
2022-08-11T05:30:03.439Z,19.36
2022-08-11T05:33:00.952Z,19.43
2022-08-11T05:36:02.414Z,19.46
2022-08-11T05:38:47.080Z,19.57
2022-08-11T05:41:33.364Z,19.72
2022-08-11T05:44:22.229Z,19.60
2022-08-11T05:47:08.447Z,19.74
2022-08-11T05:49:55.532Z,19.86
2022-08-11T05:52:47.009Z,19.98
2022-08-11T05:55:34.492Z,20.13
2022-08-11T05:58:07.191Z,20.00
2022-08-11T06:00:45.846Z,20.00
2022-08-11T06:03:25.431Z,20.12
2022-08-11T06:05:52.475Z,20.26
2022-08-11T06:08:29.812Z,20.30
2022-08-11T06:11:02.709Z,20.45
2022-08-11T06:13:30.252Z,20.55
2022-08-11T06:15:58.834Z,20.59
2022-08-11T06:18:27.830Z,20.70
2022-08-11T06:20:58.000Z,20.78
2022-08-11T06:23:32.037Z,20.60
2022-08-11T06:26:00.233Z,20.44
2022-08-11T06:28:34.904Z,20.24
2022-08-11T06:31:11.801Z,20.29
2022-08-11T06:33:50.988Z,20.37
2022-08-11T06:36:43.767Z,20.70
2022-08-11T06:39:20.343Z,20.67
2022-08-11T06:41:53.425Z,20.79
2022-08-11T06:44:38.381Z,20.97
2022-08-11T06:47:11.001Z,21.10
2022-08-11T06:50:01.339Z,21.16
2022-08-11T06:52:35.330Z,21.26
2022-08-11T06:55:55.444Z,21.28
2022-08-11T06:58:41.805Z,21.35
2022-08-11T07:01:13.376Z,21.21
2022-08-11T07:03:52.819Z,21.36
2022-08-11T07:06:50.366Z,21.55
2022-08-11T07:09:45.221Z,21.69
2022-08-11T07:12:39.506Z,21.77
2022-08-11T07:16:13.016Z,21.86
2022-08-11T07:18:45.021Z,21.93
2022-08-11T07:22:02.565Z,22.06
2022-08-11T07:25:14.081Z,21.99
2022-08-11T07:28:06.415Z,22.10
2022-08-11T07:30:38.610Z,22.16
2022-08-11T07:33:06.520Z,22.20
2022-08-11T07:35:38.369Z,22.25
2022-08-11T07:38:20.659Z,22.35
2022-08-11T07:40:49.888Z,22.40
2022-08-11T07:43:16.812Z,22.43
2022-08-11T07:46:04.117Z,22.41
2022-08-11T07:48:52.508Z,22.54
2022-08-11T07:51:40.737Z,22.69
2022-08-11T07:54:16.455Z,22.78
2022-08-11T07:56:55.267Z,22.88
2022-08-11T08:00:03.432Z,22.83
2022-08-11T08:02:58.939Z,22.90
2022-08-11T08:05:44.461Z,23.01
2022-08-11T08:08:30.219Z,22.99
2022-08-11T08:11:15.898Z,22.97
2022-08-11T08:14:02.099Z,23.09
2022-08-11T08:16:49.359Z,23.36
2022-08-11T08:19:19.019Z,23.38
2022-08-11T08:21:47.174Z,23.01
2022-08-11T08:24:15.226Z,23.23
2022-08-11T08:26:59.136Z,23.46
2022-08-11T08:29:46.653Z,23.67
2022-08-11T08:32:16.288Z,23.60
2022-08-11T08:34:44.762Z,23.74
2022-08-11T08:37:15.765Z,23.50
2022-08-11T08:39:59.190Z,23.52
2022-08-11T08:42:31.941Z,23.70
2022-08-11T08:45:05.044Z,23.80
2022-08-11T08:47:43.405Z,23.96
2022-08-11T08:50:19.326Z,24.07
2022-08-11T08:53:00.816Z,24.17
2022-08-11T08:55:30.282Z,23.80
2022-08-11T08:58:03.365Z,24.00
2022-08-11T09:00:41.259Z,24.30
2022-08-11T09:03:36.444Z,24.37
2022-08-11T09:05:56.207Z,24.26
2022-08-11T09:08:24.270Z,24.32
2022-08-11T09:11:13.838Z,24.11
2022-08-11T09:13:44.441Z,24.27
2022-08-11T09:16:12.113Z,24.34
2022-08-11T09:18:44.525Z,24.23
2022-08-11T09:21:14.792Z,24.41
2022-08-11T09:24:26.107Z,24.29
2022-08-11T09:27:02.010Z,24.27
2022-08-11T09:29:31.225Z,23.76
2022-08-11T09:31:59.529Z,23.97
2022-08-11T09:34:27.049Z,24.24
2022-08-11T09:37:13.460Z,24.40
2022-08-11T09:40:15.233Z,24.52
2022-08-11T09:43:00.802Z,24.54
2022-08-11T09:45:27.798Z,24.62
2022-08-11T09:48:07.877Z,24.39
2022-08-11T09:50:38.218Z,24.55
2022-08-11T09:53:37.402Z,24.72
2022-08-11T09:55:54.085Z,24.84
2022-08-11T09:58:41.867Z,24.79
2022-08-11T10:01:27.000Z,24.81
2022-08-11T10:04:01.103Z,24.77
2022-08-11T10:06:54.138Z,24.75
2022-08-11T10:09:25.021Z,24.92
2022-08-11T10:11:58.882Z,25.12
2022-08-11T10:14:48.673Z,24.67
2022-08-11T10:17:18.740Z,24.39
2022-08-11T10:20:04.216Z,24.13
2022-08-11T10:22:52.378Z,24.38
2022-08-11T10:25:38.655Z,24.88
2022-08-11T10:28:28.238Z,25.07
2022-08-11T10:31:14.297Z,25.25
2022-08-11T10:34:00.530Z,25.00
2022-08-11T10:36:46.955Z,25.21
2022-08-11T10:39:17.163Z,25.33
2022-08-11T10:42:08.681Z,25.48
2022-08-11T10:44:40.153Z,25.34
2022-08-11T10:47:29.252Z,25.29
2022-08-11T10:50:14.921Z,25.19
2022-08-11T10:53:01.678Z,25.02
2022-08-11T10:55:47.587Z,24.78
2022-08-11T10:58:33.794Z,24.96
2022-08-11T11:01:02.173Z,25.05
2022-08-11T11:03:31.267Z,25.30
2022-08-11T11:06:29.322Z,25.25
2022-08-11T11:09:05.326Z,25.06
2022-08-11T11:11:56.149Z,25.23
2022-08-11T11:14:50.684Z,25.26
2022-08-11T11:18:01.760Z,25.55
2022-08-11T11:20:47.962Z,25.47
2022-08-11T11:23:21.934Z,25.36
2022-08-11T11:26:27.012Z,25.72
2022-08-11T11:28:57.539Z,25.58
2022-08-11T11:31:41.738Z,25.64
2022-08-11T11:34:21.785Z,25.34
2022-08-11T11:36:56.802Z,25.49
2022-08-11T11:39:26.173Z,25.83
2022-08-11T11:41:55.590Z,25.73
2022-08-11T11:44:23.861Z,25.92
2022-08-11T11:46:52.322Z,26.09
2022-08-11T11:51:55.629Z,25.98
2022-08-11T11:54:26.521Z,26.16
2022-08-11T11:56:54.716Z,26.40
2022-08-11T11:59:43.054Z,26.22
2022-08-11T12:02:12.915Z,26.05
2022-08-11T12:04:43.004Z,25.76
2022-08-11T12:07:29.300Z,25.96
2022-08-11T12:09:58.488Z,26.00
2022-08-11T12:12:45.017Z,26.09
2022-08-11T12:15:12.041Z,26.38
2022-08-11T12:17:39.210Z,26.23
2022-08-11T12:20:31.522Z,26.37
2022-08-11T12:23:15.329Z,26.01
2022-08-11T12:26:26.387Z,26.20
2022-08-11T12:28:50.478Z,26.52
2022-08-11T12:31:19.002Z,26.55
2022-08-11T12:33:47.265Z,26.51
2022-08-11T12:36:16.285Z,26.46
2022-08-11T12:38:51.227Z,26.34
2022-08-11T12:41:39.663Z,26.39
2022-08-11T12:44:28.385Z,26.01
2022-08-11T12:46:59.807Z,26.46
2022-08-11T12:49:49.525Z,26.59
2022-08-11T12:52:24.703Z,26.87
2022-08-11T12:54:59.033Z,26.92
2022-08-11T12:57:55.384Z,26.78
2022-08-11T13:00:41.963Z,26.61
2022-08-11T13:03:29.115Z,26.87
2022-08-11T13:05:58.481Z,26.45
2022-08-11T13:08:27.882Z,26.39
2022-08-11T13:11:15.841Z,26.17
2022-08-11T13:13:54.949Z,25.56
2022-08-11T13:16:52.473Z,26.08
2022-08-11T13:19:21.148Z,26.57
2022-08-11T13:21:49.705Z,26.58
2022-08-11T13:24:18.504Z,26.54
2022-08-11T13:26:49.658Z,26.38
2022-08-11T13:29:20.013Z,26.13
2022-08-11T13:31:47.716Z,26.42
2022-08-11T13:34:16.748Z,26.47
2022-08-11T13:36:44.792Z,26.45
2022-08-11T13:39:13.385Z,26.52
2022-08-11T13:41:42.033Z,26.67
2022-08-11T13:44:12.431Z,26.76
2022-08-11T13:46:44.300Z,26.76
2022-08-11T13:49:11.710Z,26.80
2022-08-11T13:51:40.154Z,26.84
2022-08-11T13:54:09.236Z,26.66
2022-08-11T13:56:41.237Z,26.97
2022-08-11T13:59:09.371Z,26.80
2022-08-11T14:02:20.482Z,26.68
2022-08-11T14:04:45.294Z,26.82
2022-08-11T14:07:14.783Z,26.85
2022-08-11T14:09:44.787Z,26.54
2022-08-11T14:12:42.984Z,26.71
2022-08-11T14:15:33.394Z,26.32
2022-08-11T14:18:05.253Z,26.70
2022-08-11T14:20:52.934Z,26.72
2022-08-11T14:23:26.740Z,26.57
2022-08-11T14:26:14.258Z,26.58
2022-08-11T14:28:45.144Z,26.83
2022-08-11T14:31:16.525Z,26.95
2022-08-11T14:34:00.820Z,26.92
2022-08-11T14:36:35.521Z,26.80
2022-08-11T14:39:13.164Z,26.44
2022-08-11T14:42:10.035Z,26.70
2022-08-11T14:45:01.629Z,26.56
2022-08-11T14:47:32.212Z,26.25
2022-08-11T14:50:11.392Z,26.14
2022-08-11T14:52:51.635Z,25.99
2022-08-11T14:55:38.905Z,26.23
2022-08-11T14:58:08.677Z,25.94
2022-08-11T15:00:36.508Z,25.96
2022-08-11T15:03:11.677Z,26.33
2022-08-11T15:05:41.689Z,26.32
2022-08-11T15:08:41.601Z,25.50
2022-08-11T15:11:30.727Z,25.80
2022-08-11T15:13:59.939Z,25.53
2022-08-11T15:16:46.123Z,25.36
2022-08-11T15:19:13.919Z,24.96
2022-08-11T15:21:59.388Z,25.38
2022-08-11T15:24:27.993Z,25.43
2022-08-11T15:27:19.201Z,24.82
2022-08-11T15:30:07.079Z,25.09
2022-08-11T15:32:53.802Z,25.53
2022-08-11T15:35:39.933Z,25.70
2022-08-11T15:38:11.650Z,25.93
2022-08-11T15:40:59.865Z,25.94
2022-08-11T15:43:51.451Z,26.01
2022-08-11T15:46:23.029Z,25.68
2022-08-11T15:48:59.333Z,25.73
2022-08-11T15:51:45.285Z,25.93
2022-08-11T15:54:18.659Z,25.85
2022-08-11T15:56:48.858Z,25.78
2022-08-11T15:59:42.921Z,25.79
2022-08-11T16:02:33.671Z,25.78
2022-08-11T16:05:05.996Z,25.76
2022-08-11T16:07:38.433Z,25.86
2022-08-11T16:10:21.474Z,26.11
2022-08-11T16:13:06.506Z,26.03
2022-08-11T16:15:55.577Z,26.09
2022-08-11T16:18:40.511Z,25.82
2022-08-11T16:21:34.053Z,25.77
2022-08-11T16:24:06.011Z,26.00
2022-08-11T16:27:07.905Z,26.33
2022-08-11T16:29:25.477Z,26.50
2022-08-11T16:32:14.468Z,26.27
2022-08-11T16:35:02.270Z,26.11
2022-08-11T16:37:49.477Z,26.20
2022-08-11T16:40:17.830Z,26.03
2022-08-11T16:43:10.108Z,26.24
2022-08-11T16:45:56.596Z,26.99
2022-08-11T16:48:35.061Z,26.57
2022-08-11T16:51:05.148Z,26.45
2022-08-11T16:54:03.416Z,26.00
2022-08-11T16:56:21.982Z,25.85
2022-08-11T16:59:12.767Z,25.71
2022-08-11T17:01:40.698Z,25.57
2022-08-11T17:04:32.525Z,26.03
2022-08-11T17:07:23.910Z,26.37
2022-08-11T17:10:38.183Z,26.29
2022-08-11T17:13:15.763Z,26.82
2022-08-11T17:16:06.973Z,27.31
2022-08-11T17:18:41.722Z,27.51
2022-08-11T17:21:18.595Z,27.49
2022-08-11T17:23:51.914Z,27.58
2022-08-11T17:26:57.680Z,27.57
2022-08-11T17:29:54.524Z,27.49
2022-08-11T17:32:57.276Z,27.57
2022-08-11T17:35:34.681Z,27.19
2022-08-11T17:38:03.943Z,26.70
2022-08-11T17:40:32.722Z,26.88
2022-08-11T17:43:19.646Z,27.11
2022-08-11T17:46:05.170Z,26.97
2022-08-11T17:48:47.891Z,26.64
2022-08-11T17:51:38.360Z,26.31
2022-08-11T17:54:25.593Z,26.14
2022-08-11T17:57:20.088Z,25.84
2022-08-11T17:59:53.110Z,26.01
2022-08-11T18:02:44.118Z,26.10
2022-08-11T18:05:13.755Z,26.07
2022-08-11T18:08:01.745Z,25.79
2022-08-11T18:10:50.400Z,25.06
2022-08-11T18:13:40.187Z,24.68
2022-08-11T18:16:27.091Z,24.20
2022-08-11T18:19:12.130Z,24.26
2022-08-11T18:22:15.457Z,23.89
2022-08-11T18:25:13.013Z,23.51
2022-08-11T18:28:03.241Z,23.47
2022-08-11T18:30:53.908Z,23.27
2022-08-11T18:34:07.072Z,23.03
2022-08-11T18:36:57.399Z,22.87
2022-08-11T18:39:54.655Z,22.81
2022-08-11T18:42:45.156Z,22.77
2022-08-11T18:45:45.321Z,22.60
2022-08-11T18:48:35.792Z,22.47
2022-08-11T18:51:30.982Z,22.53
2022-08-11T18:54:29.172Z,22.65
2022-08-11T18:57:18.411Z,22.63
2022-08-11T19:00:05.681Z,22.57
2022-08-11T19:02:55.879Z,22.59
2022-08-11T19:06:32.026Z,22.57
2022-08-11T19:08:55.838Z,22.63
2022-08-11T19:11:43.633Z,22.63
2022-08-11T19:14:31.224Z,22.66
2022-08-11T19:17:44.746Z,22.63
2022-08-11T19:20:29.270Z,22.48
2022-08-11T19:23:15.853Z,22.47
2022-08-11T19:26:03.770Z,22.52
2022-08-11T19:28:52.140Z,22.52
2022-08-11T19:31:43.871Z,22.54
2022-08-11T19:34:34.779Z,22.58
2022-08-11T19:37:24.818Z,22.56
2022-08-11T19:40:13.350Z,22.49
2022-08-11T19:43:01.840Z,22.46
2022-08-11T19:45:52.692Z,22.43
2022-08-11T19:48:40.826Z,22.44
2022-08-11T19:51:27.480Z,22.49
2022-08-11T19:54:13.701Z,22.55
2022-08-11T19:57:00.955Z,22.52
2022-08-11T19:59:47.228Z,22.43
2022-08-11T20:02:32.491Z,22.41
2022-08-11T20:05:17.976Z,22.25
2022-08-11T20:08:05.546Z,22.13
2022-08-11T20:10:53.013Z,22.01
2022-08-11T20:13:42.562Z,21.99
2022-08-11T20:16:31.014Z,22.11
2022-08-11T20:19:17.788Z,22.29
2022-08-11T20:22:08.229Z,22.47
2022-08-11T20:24:56.673Z,22.63
2022-08-11T20:27:43.341Z,22.72
2022-08-11T20:30:28.928Z,22.70
2022-08-11T20:33:14.717Z,22.62
2022-08-11T20:36:00.242Z,22.58
2022-08-11T20:38:49.898Z,22.59
2022-08-11T20:41:58.118Z,22.60
2022-08-11T20:44:46.544Z,22.58
2022-08-11T20:47:56.231Z,22.60
2022-08-11T20:50:41.633Z,22.59
2022-08-11T20:53:32.181Z,22.60
2022-08-11T20:56:28.563Z,22.61
2022-08-11T20:59:18.977Z,22.53
2022-08-11T21:02:11.273Z,22.55
2022-08-11T21:05:00.356Z,22.57
2022-08-11T21:07:57.072Z,22.57
2022-08-11T21:14:00.324Z,22.64
2022-08-11T21:16:51.486Z,22.59
2022-08-11T21:20:06.643Z,22.54
2022-08-11T21:23:05.884Z,22.47
2022-08-11T21:26:01.217Z,22.42
2022-08-11T21:28:48.356Z,22.47
2022-08-11T21:31:34.196Z,22.44
2022-08-11T21:34:21.874Z,22.43
2022-08-11T21:37:08.826Z,22.43
2022-08-11T21:39:55.744Z,22.27
2022-08-11T21:42:41.627Z,22.25
2022-08-11T21:45:28.972Z,22.25
2022-08-11T21:48:15.798Z,22.25
2022-08-11T21:51:01.154Z,22.22
2022-08-11T21:53:46.862Z,22.23
2022-08-11T21:56:33.169Z,22.17
2022-08-11T21:59:20.438Z,22.15
2022-08-11T22:02:12.437Z,22.16
2022-08-11T22:04:58.554Z,22.15
2022-08-11T22:07:43.946Z,22.17
2022-08-11T22:10:40.957Z,22.17
2022-08-11T22:13:30.405Z,22.14
2022-08-11T22:16:16.523Z,22.12
2022-08-11T22:19:02.842Z,22.09
2022-08-11T22:22:01.697Z,22.10
2022-08-11T22:24:51.766Z,22.02
2022-08-11T22:27:37.932Z,22.06
2022-08-11T22:30:28.574Z,22.03
2022-08-11T22:33:16.334Z,22.01
2022-08-11T22:36:04.156Z,21.94
2022-08-11T22:38:51.817Z,21.90
2022-08-11T22:41:37.638Z,21.84
2022-08-11T22:44:23.536Z,21.86
2022-08-11T22:47:10.687Z,21.87
2022-08-11T22:50:00.837Z,21.85
2022-08-11T22:52:49.955Z,21.82
2022-08-11T22:55:37.778Z,21.73
2022-08-11T22:58:24.364Z,21.77
2022-08-11T23:01:10.209Z,21.75
2022-08-11T23:03:56.426Z,21.71
2022-08-11T23:06:41.908Z,21.72
2022-08-11T23:09:28.065Z,21.69
2022-08-11T23:12:13.857Z,21.69
2022-08-11T23:14:59.615Z,21.66
2022-08-11T23:17:45.863Z,21.63
2022-08-11T23:20:35.453Z,21.52
2022-08-11T23:23:28.680Z,21.28
2022-08-11T23:26:14.795Z,21.24
2022-08-11T23:29:01.922Z,21.13
2022-08-11T23:31:52.630Z,21.17
2022-08-11T23:35:04.775Z,21.23
2022-08-11T23:37:46.527Z,21.24
2022-08-11T23:40:31.704Z,21.23
2022-08-11T23:43:16.915Z,21.23
2022-08-11T23:46:02.151Z,21.18
2022-08-11T23:48:49.162Z,21.11
2022-08-11T23:51:41.252Z,21.06
2022-08-11T23:54:31.616Z,21.05
2022-08-11T23:57:22.246Z,21.03
